sensor_id;sensor_type;location;lat;lon;timestamp;P1;durP1;ratioP1;P2;durP2;ratioP2
21505;SDS011;10914;48.886;9.394;2023-04-27T00:00:23;31.70;;;29.40;;
21505;SDS011;10914;48.886;9.394;2023-04-27T00:02:48;29.80;;;27.98;;
21505;SDS011;10914;48.886;9.394;2023-04-27T00:05:14;29.42;;;27.67;;
21505;SDS011;10914;48.886;9.394;2023-04-27T00:07:39;28.53;;;26.63;;
21505;SDS011;10914;48.886;9.394;2023-04-27T00:10:05;28.70;;;26.60;;
21505;SDS011;10914;48.886;9.394;2023-04-27T00:12:30;29.02;;;27.23;;
21505;SDS011;10914;48.886;9.394;2023-04-27T00:14:56;30.02;;;27.95;;
21505;SDS011;10914;48.886;9.394;2023-04-27T00:17:21;29.13;;;27.25;;
21505;SDS011;10914;48.886;9.394;2023-04-27T00:19:46;29.77;;;27.65;;
21505;SDS011;10914;48.886;9.394;2023-04-27T00:22:12;29.85;;;27.65;;
21505;SDS011;10914;48.886;9.394;2023-04-27T00:24:38;29.63;;;27.52;;
21505;SDS011;10914;48.886;9.394;2023-04-27T00:27:03;28.13;;;26.42;;
21505;SDS011;10914;48.886;9.394;2023-04-27T00:29:28;28.60;;;26.80;;
21505;SDS011;10914;48.886;9.394;2023-04-27T00:31:53;28.60;;;26.90;;
21505;SDS011;10914;48.886;9.394;2023-04-27T00:34:18;28.75;;;27.00;;
21505;SDS011;10914;48.886;9.394;2023-04-27T00:36:43;29.27;;;27.37;;
21505;SDS011;10914;48.886;9.394;2023-04-27T00:39:09;29.23;;;27.43;;
21505;SDS011;10914;48.886;9.394;2023-04-27T00:41:37;28.35;;;26.60;;
21505;SDS011;10914;48.886;9.394;2023-04-27T00:44:05;29.00;;;27.08;;
21505;SDS011;10914;48.886;9.394;2023-04-27T00:46:30;28.58;;;26.75;;
21505;SDS011;10914;48.886;9.394;2023-04-27T00:48:55;28.17;;;26.17;;
21505;SDS011;10914;48.886;9.394;2023-04-27T00:51:21;28.60;;;26.80;;
21505;SDS011;10914;48.886;9.394;2023-04-27T00:53:47;28.25;;;26.55;;
21505;SDS011;10914;48.886;9.394;2023-04-27T00:56:12;28.38;;;26.58;;
21505;SDS011;10914;48.886;9.394;2023-04-27T00:58:37;28.98;;;27.08;;
21505;SDS011;10914;48.886;9.394;2023-04-27T01:01:02;28.38;;;26.50;;
21505;SDS011;10914;48.886;9.394;2023-04-27T01:03:29;28.08;;;26.27;;
21505;SDS011;10914;48.886;9.394;2023-04-27T01:05:54;27.27;;;25.55;;
21505;SDS011;10914;48.886;9.394;2023-04-27T01:08:20;27.65;;;26.00;;
21505;SDS011;10914;48.886;9.394;2023-04-27T01:10:46;28.10;;;26.27;;
21505;SDS011;10914;48.886;9.394;2023-04-27T01:13:13;27.95;;;26.25;;
21505;SDS011;10914;48.886;9.394;2023-04-27T01:15:38;28.40;;;26.80;;
21505;SDS011;10914;48.886;9.394;2023-04-27T01:18:04;29.13;;;27.08;;
21505;SDS011;10914;48.886;9.394;2023-04-27T01:20:30;29.02;;;27.00;;
21505;SDS011;10914;48.886;9.394;2023-04-27T01:22:56;29.23;;;27.33;;
21505;SDS011;10914;48.886;9.394;2023-04-27T01:25:21;29.58;;;27.42;;
21505;SDS011;10914;48.886;9.394;2023-04-27T01:27:46;29.52;;;27.73;;
21505;SDS011;10914;48.886;9.394;2023-04-27T01:30:12;29.50;;;27.70;;
21505;SDS011;10914;48.886;9.394;2023-04-27T01:32:37;29.60;;;27.70;;
21505;SDS011;10914;48.886;9.394;2023-04-27T01:35:03;29.88;;;28.02;;
21505;SDS011;10914;48.886;9.394;2023-04-27T01:37:29;30.23;;;28.20;;
21505;SDS011;10914;48.886;9.394;2023-04-27T01:39:55;30.85;;;28.50;;
21505;SDS011;10914;48.886;9.394;2023-04-27T01:42:20;30.00;;;27.92;;
21505;SDS011;10914;48.886;9.394;2023-04-27T01:44:45;29.52;;;27.65;;
21505;SDS011;10914;48.886;9.394;2023-04-27T01:47:10;30.27;;;28.30;;
21505;SDS011;10914;48.886;9.394;2023-04-27T01:49:35;29.27;;;27.27;;
21505;SDS011;10914;48.886;9.394;2023-04-27T01:52:01;29.60;;;27.60;;
21505;SDS011;10914;48.886;9.394;2023-04-27T01:54:26;30.48;;;28.58;;
21505;SDS011;10914;48.886;9.394;2023-04-27T01:56:51;29.42;;;27.63;;
21505;SDS011;10914;48.886;9.394;2023-04-27T01:59:16;30.17;;;28.10;;
21505;SDS011;10914;48.886;9.394;2023-04-27T02:01:41;30.98;;;28.98;;
21505;SDS011;10914;48.886;9.394;2023-04-27T02:04:07;30.83;;;28.73;;
21505;SDS011;10914;48.886;9.394;2023-04-27T02:06:32;29.30;;;27.23;;
21505;SDS011;10914;48.886;9.394;2023-04-27T02:08:57;29.88;;;27.95;;
21505;SDS011;10914;48.886;9.394;2023-04-27T02:11:22;29.63;;;27.55;;
21505;SDS011;10914;48.886;9.394;2023-04-27T02:13:47;30.47;;;28.47;;
21505;SDS011;10914;48.886;9.394;2023-04-27T02:16:12;30.20;;;28.20;;
21505;SDS011;10914;48.886;9.394;2023-04-27T02:18:38;31.23;;;28.98;;
21505;SDS011;10914;48.886;9.394;2023-04-27T02:21:09;30.67;;;28.67;;
21505;SDS011;10914;48.886;9.394;2023-04-27T02:23:34;30.67;;;28.55;;
21505;SDS011;10914;48.886;9.394;2023-04-27T02:25:59;30.95;;;28.75;;
21505;SDS011;10914;48.886;9.394;2023-04-27T02:28:25;30.15;;;28.05;;
21505;SDS011;10914;48.886;9.394;2023-04-27T02:30:50;30.83;;;28.60;;
21505;SDS011;10914;48.886;9.394;2023-04-27T02:33:15;31.60;;;29.08;;
21505;SDS011;10914;48.886;9.394;2023-04-27T02:35:41;30.33;;;28.33;;
21505;SDS011;10914;48.886;9.394;2023-04-27T02:38:06;30.48;;;28.38;;
21505;SDS011;10914;48.886;9.394;2023-04-27T02:40:31;31.67;;;29.37;;
21505;SDS011;10914;48.886;9.394;2023-04-27T02:42:56;30.70;;;28.65;;
21505;SDS011;10914;48.886;9.394;2023-04-27T02:45:21;30.95;;;28.77;;
21505;SDS011;10914;48.886;9.394;2023-04-27T02:47:47;29.77;;;27.83;;
21505;SDS011;10914;48.886;9.394;2023-04-27T02:50:12;29.95;;;27.80;;
21505;SDS011;10914;48.886;9.394;2023-04-27T02:52:38;30.67;;;28.63;;
21505;SDS011;10914;48.886;9.394;2023-04-27T02:55:03;30.17;;;28.02;;
21505;SDS011;10914;48.886;9.394;2023-04-27T02:57:28;31.10;;;29.00;;
21505;SDS011;10914;48.886;9.394;2023-04-27T02:59:53;29.33;;;27.33;;
21505;SDS011;10914;48.886;9.394;2023-04-27T03:02:18;29.90;;;28.10;;
21505;SDS011;10914;48.886;9.394;2023-04-27T03:04:43;29.63;;;27.70;;
21505;SDS011;10914;48.886;9.394;2023-04-27T03:07:09;30.20;;;28.20;;
21505;SDS011;10914;48.886;9.394;2023-04-27T03:09:35;29.13;;;27.20;;
21505;SDS011;10914;48.886;9.394;2023-04-27T03:12:00;28.40;;;26.60;;
21505;SDS011;10914;48.886;9.394;2023-04-27T03:14:26;28.77;;;26.98;;
21505;SDS011;10914;48.886;9.394;2023-04-27T03:16:51;29.30;;;27.52;;
21505;SDS011;10914;48.886;9.394;2023-04-27T03:19:18;29.10;;;27.38;;
21505;SDS011;10914;48.886;9.394;2023-04-27T03:21:43;29.15;;;27.25;;
21505;SDS011;10914;48.886;9.394;2023-04-27T03:24:08;29.17;;;27.40;;
21505;SDS011;10914;48.886;9.394;2023-04-27T03:26:33;29.25;;;27.45;;
21505;SDS011;10914;48.886;9.394;2023-04-27T03:28:59;29.67;;;27.88;;
21505;SDS011;10914;48.886;9.394;2023-04-27T03:31:24;30.20;;;28.10;;
21505;SDS011;10914;48.886;9.394;2023-04-27T03:33:50;29.50;;;27.50;;
21505;SDS011;10914;48.886;9.394;2023-04-27T03:36:15;30.00;;;27.98;;
21505;SDS011;10914;48.886;9.394;2023-04-27T03:38:40;29.90;;;27.90;;
21505;SDS011;10914;48.886;9.394;2023-04-27T03:41:05;29.98;;;27.90;;
21505;SDS011;10914;48.886;9.394;2023-04-27T03:43:30;29.30;;;27.40;;
21505;SDS011;10914;48.886;9.394;2023-04-27T03:45:56;30.13;;;28.25;;
21505;SDS011;10914;48.886;9.394;2023-04-27T03:48:21;30.20;;;28.08;;
21505;SDS011;10914;48.886;9.394;2023-04-27T03:50:46;29.75;;;27.77;;
21505;SDS011;10914;48.886;9.394;2023-04-27T03:53:12;31.10;;;29.00;;
21505;SDS011;10914;48.886;9.394;2023-04-27T03:55:38;29.10;;;27.20;;
21505;SDS011;10914;48.886;9.394;2023-04-27T03:58:03;29.75;;;27.75;;
21505;SDS011;10914;48.886;9.394;2023-04-27T04:00:28;29.83;;;27.77;;
21505;SDS011;10914;48.886;9.394;2023-04-27T04:02:53;29.60;;;27.60;;
21505;SDS011;10914;48.886;9.394;2023-04-27T04:05:19;30.02;;;28.02;;
21505;SDS011;10914;48.886;9.394;2023-04-27T04:07:44;29.08;;;27.27;;
21505;SDS011;10914;48.886;9.394;2023-04-27T04:10:10;30.58;;;28.50;;
21505;SDS011;10914;48.886;9.394;2023-04-27T04:12:36;30.13;;;28.20;;
21505;SDS011;10914;48.886;9.394;2023-04-27T04:15:02;29.93;;;27.93;;
21505;SDS011;10914;48.886;9.394;2023-04-27T04:17:27;30.55;;;28.35;;
21505;SDS011;10914;48.886;9.394;2023-04-27T04:19:52;30.25;;;28.40;;
21505;SDS011;10914;48.886;9.394;2023-04-27T04:22:18;29.73;;;27.73;;
21505;SDS011;10914;48.886;9.394;2023-04-27T04:24:43;30.02;;;28.10;;
21505;SDS011;10914;48.886;9.394;2023-04-27T04:27:08;30.73;;;28.67;;
21505;SDS011;10914;48.886;9.394;2023-04-27T04:29:33;30.63;;;28.42;;
21505;SDS011;10914;48.886;9.394;2023-04-27T04:31:58;30.08;;;28.08;;
21505;SDS011;10914;48.886;9.394;2023-04-27T04:34:24;30.27;;;28.17;;
21505;SDS011;10914;48.886;9.394;2023-04-27T04:36:49;31.08;;;29.00;;
21505;SDS011;10914;48.886;9.394;2023-04-27T04:39:18;30.15;;;27.95;;
21505;SDS011;10914;48.886;9.394;2023-04-27T04:41:46;30.63;;;28.73;;
21505;SDS011;10914;48.886;9.394;2023-04-27T04:44:13;32.95;;;30.45;;
21505;SDS011;10914;48.886;9.394;2023-04-27T04:46:39;32.78;;;30.40;;
21505;SDS011;10914;48.886;9.394;2023-04-27T04:49:04;30.90;;;28.80;;
21505;SDS011;10914;48.886;9.394;2023-04-27T04:51:30;31.65;;;29.50;;
21505;SDS011;10914;48.886;9.394;2023-04-27T04:53:55;32.72;;;30.35;;
21505;SDS011;10914;48.886;9.394;2023-04-27T04:56:20;32.20;;;29.60;;
21505;SDS011;10914;48.886;9.394;2023-04-27T04:58:46;31.33;;;29.13;;
21505;SDS011;10914;48.886;9.394;2023-04-27T05:01:11;30.30;;;28.30;;
21505;SDS011;10914;48.886;9.394;2023-04-27T05:03:36;31.65;;;29.55;;
21505;SDS011;10914;48.886;9.394;2023-04-27T05:06:01;31.92;;;29.77;;
21505;SDS011;10914;48.886;9.394;2023-04-27T05:08:26;32.35;;;29.92;;
21505;SDS011;10914;48.886;9.394;2023-04-27T05:10:52;33.80;;;31.50;;
21505;SDS011;10914;48.886;9.394;2023-04-27T05:13:17;31.67;;;29.67;;
21505;SDS011;10914;48.886;9.394;2023-04-27T05:15:42;33.22;;;31.23;;
21505;SDS011;10914;48.886;9.394;2023-04-27T05:18:08;34.70;;;32.30;;
21505;SDS011;10914;48.886;9.394;2023-04-27T05:20:33;35.60;;;33.53;;
21505;SDS011;10914;48.886;9.394;2023-04-27T05:22:59;34.47;;;32.22;;
21505;SDS011;10914;48.886;9.394;2023-04-27T05:25:24;33.38;;;31.33;;
21505;SDS011;10914;48.886;9.394;2023-04-27T05:27:49;38.23;;;35.80;;
21505;SDS011;10914;48.886;9.394;2023-04-27T05:30:14;37.10;;;34.67;;
21505;SDS011;10914;48.886;9.394;2023-04-27T05:32:39;35.78;;;33.60;;
21505;SDS011;10914;48.886;9.394;2023-04-27T05:35:05;33.53;;;31.52;;
21505;SDS011;10914;48.886;9.394;2023-04-27T05:37:30;32.47;;;30.48;;
21505;SDS011;10914;48.886;9.394;2023-04-27T05:39:55;32.30;;;30.20;;
21505;SDS011;10914;48.886;9.394;2023-04-27T05:42:20;31.95;;;29.83;;
21505;SDS011;10914;48.886;9.394;2023-04-27T05:44:45;31.47;;;29.23;;
21505;SDS011;10914;48.886;9.394;2023-04-27T05:47:11;32.10;;;30.00;;
21505;SDS011;10914;48.886;9.394;2023-04-27T05:49:36;29.58;;;27.63;;
21505;SDS011;10914;48.886;9.394;2023-04-27T05:52:01;28.70;;;26.90;;
21505;SDS011;10914;48.886;9.394;2023-04-27T05:54:26;29.42;;;27.33;;
21505;SDS011;10914;48.886;9.394;2023-04-27T05:56:51;28.40;;;26.50;;
21505;SDS011;10914;48.886;9.394;2023-04-27T05:59:16;28.17;;;26.47;;
21505;SDS011;10914;48.886;9.394;2023-04-27T06:01:42;27.67;;;25.88;;
21505;SDS011;10914;48.886;9.394;2023-04-27T06:04:07;27.83;;;25.83;;
21505;SDS011;10914;48.886;9.394;2023-04-27T06:06:32;27.27;;;25.52;;
21505;SDS011;10914;48.886;9.394;2023-04-27T06:08:58;26.60;;;24.90;;
21505;SDS011;10914;48.886;9.394;2023-04-27T06:11:23;27.67;;;25.87;;
21505;SDS011;10914;48.886;9.394;2023-04-27T06:13:48;27.65;;;25.70;;
21505;SDS011;10914;48.886;9.394;2023-04-27T06:16:13;26.80;;;25.10;;
21505;SDS011;10914;48.886;9.394;2023-04-27T06:18:38;28.08;;;26.15;;
21505;SDS011;10914;48.886;9.394;2023-04-27T06:21:04;27.00;;;25.30;;
21505;SDS011;10914;48.886;9.394;2023-04-27T06:23:29;26.63;;;24.92;;
21505;SDS011;10914;48.886;9.394;2023-04-27T06:25:54;28.85;;;26.83;;
21505;SDS011;10914;48.886;9.394;2023-04-27T06:28:20;28.75;;;26.95;;
21505;SDS011;10914;48.886;9.394;2023-04-27T06:30:45;29.23;;;27.52;;
21505;SDS011;10914;48.886;9.394;2023-04-27T06:33:10;29.30;;;27.55;;
21505;SDS011;10914;48.886;9.394;2023-04-27T06:35:35;30.47;;;28.47;;
21505;SDS011;10914;48.886;9.394;2023-04-27T06:38:00;30.48;;;28.58;;
21505;SDS011;10914;48.886;9.394;2023-04-27T06:40:26;30.45;;;28.10;;
21505;SDS011;10914;48.886;9.394;2023-04-27T06:42:51;30.67;;;28.67;;
21505;SDS011;10914;48.886;9.394;2023-04-27T06:45:16;30.15;;;28.00;;
21505;SDS011;10914;48.886;9.394;2023-04-27T06:47:41;31.20;;;29.40;;
21505;SDS011;10914;48.886;9.394;2023-04-27T06:50:07;30.58;;;28.60;;
21505;SDS011;10914;48.886;9.394;2023-04-27T06:52:32;30.05;;;28.02;;
21505;SDS011;10914;48.886;9.394;2023-04-27T06:54:57;28.75;;;27.05;;
21505;SDS011;10914;48.886;9.394;2023-04-27T06:57:23;29.63;;;27.83;;
21505;SDS011;10914;48.886;9.394;2023-04-27T06:59:48;29.63;;;27.80;;
21505;SDS011;10914;48.886;9.394;2023-04-27T07:02:13;29.53;;;27.60;;
21505;SDS011;10914;48.886;9.394;2023-04-27T07:16:54;25.67;;;24.00;;
21505;SDS011;10914;48.886;9.394;2023-04-27T07:19:19;25.00;;;23.20;;
21505;SDS011;10914;48.886;9.394;2023-04-27T07:21:45;25.33;;;23.83;;
21505;SDS011;10914;48.886;9.394;2023-04-27T07:24:10;24.85;;;23.35;;
21505;SDS011;10914;48.886;9.394;2023-04-27T07:26:35;24.73;;;23.08;;
21505;SDS011;10914;48.886;9.394;2023-04-27T07:29:00;24.48;;;23.00;;
21505;SDS011;10914;48.886;9.394;2023-04-27T07:31:26;24.30;;;22.67;;
21505;SDS011;10914;48.886;9.394;2023-04-27T07:33:52;25.02;;;23.33;;
21505;SDS011;10914;48.886;9.394;2023-04-27T07:36:17;24.42;;;22.83;;
21505;SDS011;10914;48.886;9.394;2023-04-27T07:38:42;24.02;;;22.63;;
21505;SDS011;10914;48.886;9.394;2023-04-27T07:41:08;24.23;;;22.63;;
21505;SDS011;10914;48.886;9.394;2023-04-27T07:43:34;24.50;;;23.10;;
21505;SDS011;10914;48.886;9.394;2023-04-27T07:45:59;24.48;;;22.83;;
21505;SDS011;10914;48.886;9.394;2023-04-27T07:48:25;23.77;;;22.27;;
21505;SDS011;10914;48.886;9.394;2023-04-27T07:50:50;24.40;;;22.73;;
21505;SDS011;10914;48.886;9.394;2023-04-27T07:53:16;23.83;;;22.40;;
21505;SDS011;10914;48.886;9.394;2023-04-27T07:55:41;23.42;;;22.00;;
21505;SDS011;10914;48.886;9.394;2023-04-27T07:58:08;23.42;;;22.02;;
21505;SDS011;10914;48.886;9.394;2023-04-27T08:00:33;23.83;;;22.40;;
21505;SDS011;10914;48.886;9.394;2023-04-27T08:02:59;23.45;;;21.83;;
21505;SDS011;10914;48.886;9.394;2023-04-27T08:05:24;23.65;;;22.15;;
21505;SDS011;10914;48.886;9.394;2023-04-27T08:07:49;24.35;;;22.63;;
21505;SDS011;10914;48.886;9.394;2023-04-27T08:10:17;23.52;;;22.13;;
21505;SDS011;10914;48.886;9.394;2023-04-27T08:12:42;23.70;;;22.23;;
21505;SDS011;10914;48.886;9.394;2023-04-27T08:15:07;23.33;;;21.83;;
21505;SDS011;10914;48.886;9.394;2023-04-27T08:17:33;23.45;;;21.95;;
21505;SDS011;10914;48.886;9.394;2023-04-27T08:19:59;23.80;;;22.20;;
21505;SDS011;10914;48.886;9.394;2023-04-27T08:22:24;24.13;;;22.43;;
21505;SDS011;10914;48.886;9.394;2023-04-27T08:24:49;24.60;;;22.80;;
21505;SDS011;10914;48.886;9.394;2023-04-27T08:27:14;23.50;;;22.15;;
21505;SDS011;10914;48.886;9.394;2023-04-27T08:29:46;22.88;;;21.40;;
21505;SDS011;10914;48.886;9.394;2023-04-27T08:32:14;23.63;;;22.02;;
21505;SDS011;10914;48.886;9.394;2023-04-27T08:34:40;23.83;;;22.33;;
21505;SDS011;10914;48.886;9.394;2023-04-27T08:37:05;24.00;;;22.50;;
21505;SDS011;10914;48.886;9.394;2023-04-27T08:39:31;24.55;;;23.05;;
21505;SDS011;10914;48.886;9.394;2023-04-27T08:41:56;25.00;;;23.40;;
21505;SDS011;10914;48.886;9.394;2023-04-27T08:44:21;23.75;;;22.38;;
21505;SDS011;10914;48.886;9.394;2023-04-27T08:46:47;25.53;;;23.50;;
21505;SDS011;10914;48.886;9.394;2023-04-27T08:49:12;24.63;;;23.07;;
21505;SDS011;10914;48.886;9.394;2023-04-27T08:51:37;25.67;;;24.00;;
21505;SDS011;10914;48.886;9.394;2023-04-27T08:54:02;25.40;;;23.37;;
21505;SDS011;10914;48.886;9.394;2023-04-27T08:56:28;26.75;;;25.05;;
21505;SDS011;10914;48.886;9.394;2023-04-27T08:58:54;28.13;;;26.38;;
21505;SDS011;10914;48.886;9.394;2023-04-27T09:01:20;26.35;;;24.65;;
21505;SDS011;10914;48.886;9.394;2023-04-27T09:03:46;26.48;;;24.83;;
21505;SDS011;10914;48.886;9.394;2023-04-27T09:06:11;25.52;;;24.02;;
21505;SDS011;10914;48.886;9.394;2023-04-27T09:11:05;24.85;;;23.45;;
21505;SDS011;10914;48.886;9.394;2023-04-27T09:13:34;24.42;;;22.85;;
21505;SDS011;10914;48.886;9.394;2023-04-27T09:15:59;24.27;;;22.42;;
21505;SDS011;10914;48.886;9.394;2023-04-27T09:18:24;23.38;;;22.00;;
21505;SDS011;10914;48.886;9.394;2023-04-27T09:20:51;24.58;;;22.88;;
21505;SDS011;10914;48.886;9.394;2023-04-27T09:25:51;23.38;;;22.08;;
21505;SDS011;10914;48.886;9.394;2023-04-27T09:28:17;25.92;;;24.23;;
21505;SDS011;10914;48.886;9.394;2023-04-27T09:30:49;25.13;;;23.73;;
21505;SDS011;10914;48.886;9.394;2023-04-27T09:33:20;25.42;;;23.73;;
21505;SDS011;10914;48.886;9.394;2023-04-27T09:35:46;25.08;;;23.30;;
21505;SDS011;10914;48.886;9.394;2023-04-27T09:38:12;26.25;;;24.52;;
21505;SDS011;10914;48.886;9.394;2023-04-27T09:40:37;25.85;;;24.30;;
21505;SDS011;10914;48.886;9.394;2023-04-27T09:43:04;26.63;;;25.13;;
21505;SDS011;10914;48.886;9.394;2023-04-27T09:45:31;24.50;;;22.80;;
21505;SDS011;10914;48.886;9.394;2023-04-27T09:47:57;26.60;;;24.80;;
21505;SDS011;10914;48.886;9.394;2023-04-27T09:50:22;25.05;;;23.45;;
21505;SDS011;10914;48.886;9.394;2023-04-27T09:52:48;24.20;;;22.80;;
21505;SDS011;10914;48.886;9.394;2023-04-27T09:55:29;25.98;;;24.27;;
21505;SDS011;10914;48.886;9.394;2023-04-27T10:00:41;28.02;;;25.98;;
21505;SDS011;10914;48.886;9.394;2023-04-27T10:03:14;26.63;;;24.83;;
21505;SDS011;10914;48.886;9.394;2023-04-27T10:05:42;26.58;;;24.88;;
21505;SDS011;10914;48.886;9.394;2023-04-27T10:08:10;26.13;;;24.38;;
21505;SDS011;10914;48.886;9.394;2023-04-27T10:13:30;27.52;;;25.63;;
21505;SDS011;10914;48.886;9.394;2023-04-27T10:15:55;26.15;;;24.30;;
21505;SDS011;10914;48.886;9.394;2023-04-27T10:18:24;24.43;;;23.03;;
21505;SDS011;10914;48.886;9.394;2023-04-27T10:20:50;23.77;;;22.38;;
21505;SDS011;10914;48.886;9.394;2023-04-27T10:23:26;23.75;;;22.23;;
21505;SDS011;10914;48.886;9.394;2023-04-27T10:25:52;24.02;;;22.45;;
21505;SDS011;10914;48.886;9.394;2023-04-27T10:28:17;22.45;;;20.95;;
21505;SDS011;10914;48.886;9.394;2023-04-27T10:30:44;22.23;;;20.70;;
21505;SDS011;10914;48.886;9.394;2023-04-27T10:33:10;22.92;;;21.42;;
21505;SDS011;10914;48.886;9.394;2023-04-27T10:35:40;23.63;;;22.10;;
21505;SDS011;10914;48.886;9.394;2023-04-27T10:38:07;23.08;;;21.42;;
21505;SDS011;10914;48.886;9.394;2023-04-27T10:40:32;24.40;;;22.98;;
21505;SDS011;10914;48.886;9.394;2023-04-27T10:43:06;26.30;;;24.60;;
21505;SDS011;10914;48.886;9.394;2023-04-27T10:45:32;25.60;;;24.02;;
21505;SDS011;10914;48.886;9.394;2023-04-27T10:47:59;25.25;;;23.75;;
21505;SDS011;10914;48.886;9.394;2023-04-27T10:50:24;24.50;;;23.05;;
21505;SDS011;10914;48.886;9.394;2023-04-27T10:52:50;23.77;;;22.27;;
21505;SDS011;10914;48.886;9.394;2023-04-27T10:55:16;25.45;;;23.83;;
21505;SDS011;10914;48.886;9.394;2023-04-27T10:57:54;24.27;;;22.85;;
21505;SDS011;10914;48.886;9.394;2023-04-27T11:02:54;23.02;;;21.40;;
21505;SDS011;10914;48.886;9.394;2023-04-27T11:05:23;23.40;;;21.80;;
21505;SDS011;10914;48.886;9.394;2023-04-27T11:07:49;22.70;;;21.30;;
21505;SDS011;10914;48.886;9.394;2023-04-27T11:10:15;22.50;;;21.02;;
21505;SDS011;10914;48.886;9.394;2023-04-27T11:12:41;24.33;;;22.42;;
21505;SDS011;10914;48.886;9.394;2023-04-27T11:15:07;23.50;;;21.73;;
21505;SDS011;10914;48.886;9.394;2023-04-27T11:17:33;22.42;;;20.92;;
21505;SDS011;10914;48.886;9.394;2023-04-27T11:19:58;23.13;;;21.48;;
21505;SDS011;10914;48.886;9.394;2023-04-27T11:22:23;25.20;;;23.53;;
21505;SDS011;10914;48.886;9.394;2023-04-27T11:24:49;24.87;;;23.27;;
21505;SDS011;10914;48.886;9.394;2023-04-27T11:27:15;23.13;;;21.52;;
21505;SDS011;10914;48.886;9.394;2023-04-27T11:29:40;25.35;;;23.65;;
21505;SDS011;10914;48.886;9.394;2023-04-27T11:32:06;23.58;;;21.90;;
21505;SDS011;10914;48.886;9.394;2023-04-27T11:34:31;24.20;;;22.70;;
21505;SDS011;10914;48.886;9.394;2023-04-27T11:37:04;24.80;;;23.17;;
21505;SDS011;10914;48.886;9.394;2023-04-27T11:39:36;23.27;;;21.60;;
21505;SDS011;10914;48.886;9.394;2023-04-27T11:42:18;22.73;;;21.35;;
21505;SDS011;10914;48.886;9.394;2023-04-27T11:44:56;23.98;;;22.48;;
21505;SDS011;10914;48.886;9.394;2023-04-27T11:47:23;24.95;;;23.20;;
21505;SDS011;10914;48.886;9.394;2023-04-27T11:49:49;23.60;;;22.02;;
21505;SDS011;10914;48.886;9.394;2023-04-27T11:52:15;22.90;;;21.35;;
21505;SDS011;10914;48.886;9.394;2023-04-27T11:54:50;24.15;;;22.45;;
21505;SDS011;10914;48.886;9.394;2023-04-27T11:57:16;24.50;;;22.83;;
21505;SDS011;10914;48.886;9.394;2023-04-27T11:59:42;23.03;;;21.43;;
21505;SDS011;10914;48.886;9.394;2023-04-27T12:02:07;24.38;;;22.77;;
21505;SDS011;10914;48.886;9.394;2023-04-27T12:04:32;23.92;;;22.35;;
21505;SDS011;10914;48.886;9.394;2023-04-27T12:06:59;23.93;;;22.07;;
21505;SDS011;10914;48.886;9.394;2023-04-27T12:09:25;23.08;;;21.38;;
21505;SDS011;10914;48.886;9.394;2023-04-27T12:11:50;22.77;;;21.27;;
21505;SDS011;10914;48.886;9.394;2023-04-27T12:14:15;19.40;;;18.30;;
21505;SDS011;10914;48.886;9.394;2023-04-27T12:16:41;21.45;;;19.90;;
21505;SDS011;10914;48.886;9.394;2023-04-27T12:19:06;22.13;;;20.50;;
21505;SDS011;10914;48.886;9.394;2023-04-27T12:21:32;21.33;;;19.88;;
21505;SDS011;10914;48.886;9.394;2023-04-27T12:23:57;21.30;;;19.90;;
21505;SDS011;10914;48.886;9.394;2023-04-27T12:26:23;21.80;;;20.30;;
21505;SDS011;10914;48.886;9.394;2023-04-27T12:28:48;20.60;;;19.30;;
21505;SDS011;10914;48.886;9.394;2023-04-27T12:31:14;22.00;;;20.35;;
21505;SDS011;10914;48.886;9.394;2023-04-27T12:33:40;21.05;;;19.58;;
21505;SDS011;10914;48.886;9.394;2023-04-27T12:36:06;19.33;;;18.02;;
21505;SDS011;10914;48.886;9.394;2023-04-27T12:38:31;20.42;;;19.02;;
21505;SDS011;10914;48.886;9.394;2023-04-27T12:40:57;20.45;;;19.15;;
21505;SDS011;10914;48.886;9.394;2023-04-27T12:43:22;21.40;;;19.92;;
21505;SDS011;10914;48.886;9.394;2023-04-27T12:45:48;21.13;;;19.73;;
21505;SDS011;10914;48.886;9.394;2023-04-27T12:48:13;20.92;;;19.55;;
21505;SDS011;10914;48.886;9.394;2023-04-27T12:50:39;22.70;;;20.88;;
21505;SDS011;10914;48.886;9.394;2023-04-27T12:53:04;22.40;;;20.93;;
21505;SDS011;10914;48.886;9.394;2023-04-27T12:55:30;21.65;;;20.20;;
21505;SDS011;10914;48.886;9.394;2023-04-27T12:57:56;23.52;;;21.92;;
21505;SDS011;10914;48.886;9.394;2023-04-27T13:00:22;24.30;;;22.60;;
21505;SDS011;10914;48.886;9.394;2023-04-27T13:02:47;23.23;;;21.70;;
21505;SDS011;10914;48.886;9.394;2023-04-27T13:05:12;23.37;;;21.73;;
21505;SDS011;10914;48.886;9.394;2023-04-27T13:07:38;21.95;;;20.45;;
21505;SDS011;10914;48.886;9.394;2023-04-27T13:10:03;23.83;;;22.07;;
21505;SDS011;10914;48.886;9.394;2023-04-27T13:12:29;22.70;;;20.95;;
21505;SDS011;10914;48.886;9.394;2023-04-27T13:14:54;23.38;;;21.40;;
21505;SDS011;10914;48.886;9.394;2023-04-27T13:17:20;22.92;;;21.33;;
21505;SDS011;10914;48.886;9.394;2023-04-27T13:19:45;23.17;;;21.37;;
21505;SDS011;10914;48.886;9.394;2023-04-27T13:22:10;22.13;;;20.33;;
21505;SDS011;10914;48.886;9.394;2023-04-27T13:24:36;22.20;;;20.70;;
21505;SDS011;10914;48.886;9.394;2023-04-27T13:27:01;21.50;;;20.23;;
21505;SDS011;10914;48.886;9.394;2023-04-27T13:29:26;21.52;;;20.05;;
21505;SDS011;10914;48.886;9.394;2023-04-27T13:31:52;22.83;;;21.27;;
21505;SDS011;10914;48.886;9.394;2023-04-27T13:34:17;23.20;;;21.60;;
21505;SDS011;10914;48.886;9.394;2023-04-27T13:36:42;23.48;;;21.63;;
21505;SDS011;10914;48.886;9.394;2023-04-27T13:39:08;23.53;;;21.93;;
21505;SDS011;10914;48.886;9.394;2023-04-27T13:41:33;23.17;;;21.47;;
21505;SDS011;10914;48.886;9.394;2023-04-27T13:43:59;23.63;;;21.83;;
21505;SDS011;10914;48.886;9.394;2023-04-27T13:46:24;21.27;;;19.97;;
21505;SDS011;10914;48.886;9.394;2023-04-27T13:48:51;22.98;;;21.45;;
21505;SDS011;10914;48.886;9.394;2023-04-27T13:51:16;22.27;;;20.80;;
21505;SDS011;10914;48.886;9.394;2023-04-27T13:53:41;23.08;;;21.38;;
21505;SDS011;10914;48.886;9.394;2023-04-27T13:56:06;22.83;;;21.13;;
21505;SDS011;10914;48.886;9.394;2023-04-27T13:58:31;22.87;;;21.17;;
21505;SDS011;10914;48.886;9.394;2023-04-27T14:00:57;22.73;;;21.15;;
21505;SDS011;10914;48.886;9.394;2023-04-27T14:03:22;23.65;;;22.02;;
21505;SDS011;10914;48.886;9.394;2023-04-27T14:05:48;22.33;;;20.83;;
21505;SDS011;10914;48.886;9.394;2023-04-27T14:08:15;22.50;;;21.10;;
21505;SDS011;10914;48.886;9.394;2023-04-27T14:10:40;22.30;;;20.85;;
21505;SDS011;10914;48.886;9.394;2023-04-27T14:13:06;23.60;;;21.80;;
21505;SDS011;10914;48.886;9.394;2023-04-27T14:15:31;23.50;;;21.90;;
21505;SDS011;10914;48.886;9.394;2023-04-27T14:18:01;24.15;;;22.45;;
21505;SDS011;10914;48.886;9.394;2023-04-27T14:20:26;23.83;;;22.17;;
21505;SDS011;10914;48.886;9.394;2023-04-27T14:22:51;22.10;;;20.80;;
21505;SDS011;10914;48.886;9.394;2023-04-27T14:25:17;23.27;;;21.43;;
21505;SDS011;10914;48.886;9.394;2023-04-27T14:27:42;23.33;;;21.58;;
21505;SDS011;10914;48.886;9.394;2023-04-27T14:30:07;23.53;;;21.83;;
21505;SDS011;10914;48.886;9.394;2023-04-27T14:32:33;24.42;;;22.45;;
21505;SDS011;10914;48.886;9.394;2023-04-27T14:34:58;23.13;;;21.53;;
21505;SDS011;10914;48.886;9.394;2023-04-27T14:37:23;24.30;;;22.67;;